sensor_id;sensor_type;location;lat;lon;timestamp;P1;durP1;ratioP1;P2;durP2;ratioP2
69047;SDS011;56119;50.118;8.642;2023-08-07T00:01:17;2.40;;;0.80;;
69047;SDS011;56119;50.118;8.642;2023-08-07T00:03:42;6.90;;;1.10;;
69047;SDS011;56119;50.118;8.642;2023-08-07T00:06:08;3.58;;;0.80;;
69047;SDS011;56119;50.118;8.642;2023-08-07T00:08:34;2.40;;;0.63;;
69047;SDS011;56119;50.118;8.642;2023-08-07T00:11:09;1.80;;;0.60;;
69047;SDS011;56119;50.118;8.642;2023-08-07T00:13:35;4.20;;;0.65;;
69047;SDS011;56119;50.118;8.642;2023-08-07T00:16:01;3.72;;;0.88;;
69047;SDS011;56119;50.118;8.642;2023-08-07T00:18:28;2.88;;;0.80;;
69047;SDS011;56119;50.118;8.642;2023-08-07T00:20:54;1.73;;;0.80;;
69047;SDS011;56119;50.118;8.642;2023-08-07T00:23:20;3.00;;;0.70;;
69047;SDS011;56119;50.118;8.642;2023-08-07T00:25:46;2.63;;;1.02;;
69047;SDS011;56119;50.118;8.642;2023-08-07T00:28:12;4.32;;;1.05;;
69047;SDS011;56119;50.118;8.642;2023-08-07T00:30:38;3.63;;;0.70;;
69047;SDS011;56119;50.118;8.642;2023-08-07T00:33:04;4.45;;;1.00;;
69047;SDS011;56119;50.118;8.642;2023-08-07T00:35:30;3.00;;;0.98;;
69047;SDS011;56119;50.118;8.642;2023-08-07T00:37:55;4.07;;;1.10;;
69047;SDS011;56119;50.118;8.642;2023-08-07T00:40:21;3.20;;;1.23;;
69047;SDS011;56119;50.118;8.642;2023-08-07T00:42:47;2.58;;;0.88;;
69047;SDS011;56119;50.118;8.642;2023-08-07T00:45:13;5.50;;;1.33;;
69047;SDS011;56119;50.118;8.642;2023-08-07T00:47:39;2.97;;;1.13;;
69047;SDS011;56119;50.118;8.642;2023-08-07T00:50:06;5.10;;;1.58;;
69047;SDS011;56119;50.118;8.642;2023-08-07T00:52:33;4.32;;;1.05;;
69047;SDS011;56119;50.118;8.642;2023-08-07T00:54:59;4.25;;;1.10;;
69047;SDS011;56119;50.118;8.642;2023-08-07T00:57:25;5.00;;;1.40;;
69047;SDS011;56119;50.118;8.642;2023-08-07T00:59:51;5.85;;;1.25;;
69047;SDS011;56119;50.118;8.642;2023-08-07T01:02:18;4.00;;;1.55;;
69047;SDS011;56119;50.118;8.642;2023-08-07T01:04:44;2.28;;;1.10;;
69047;SDS011;56119;50.118;8.642;2023-08-07T01:07:10;3.45;;;1.10;;
69047;SDS011;56119;50.118;8.642;2023-08-07T01:09:36;6.88;;;1.42;;
69047;SDS011;56119;50.118;8.642;2023-08-07T01:12:07;3.22;;;0.98;;
69047;SDS011;56119;50.118;8.642;2023-08-07T01:14:58;2.95;;;1.05;;
69047;SDS011;56119;50.118;8.642;2023-08-07T01:17:22;4.40;;;1.23;;
69047;SDS011;56119;50.118;8.642;2023-08-07T01:19:50;7.22;;;2.00;;
69047;SDS011;56119;50.118;8.642;2023-08-07T01:22:17;4.20;;;1.02;;
69047;SDS011;56119;50.118;8.642;2023-08-07T01:24:44;3.10;;;0.90;;
69047;SDS011;56119;50.118;8.642;2023-08-07T01:27:14;4.07;;;1.00;;
69047;SDS011;56119;50.118;8.642;2023-08-07T01:29:47;3.28;;;0.90;;
69047;SDS011;56119;50.118;8.642;2023-08-07T01:32:16;2.92;;;1.20;;
69047;SDS011;56119;50.118;8.642;2023-08-07T01:34:45;2.47;;;1.00;;
69047;SDS011;56119;50.118;8.642;2023-08-07T01:37:12;4.32;;;1.25;;
69047;SDS011;56119;50.118;8.642;2023-08-07T01:39:38;3.65;;;0.93;;
69047;SDS011;56119;50.118;8.642;2023-08-07T01:42:05;3.65;;;1.20;;
69047;SDS011;56119;50.118;8.642;2023-08-07T01:44:31;3.15;;;1.17;;
69047;SDS011;56119;50.118;8.642;2023-08-07T01:46:57;2.83;;;1.02;;
69047;SDS011;56119;50.118;8.642;2023-08-07T01:49:23;3.30;;;0.93;;
69047;SDS011;56119;50.118;8.642;2023-08-07T01:51:49;4.80;;;1.30;;
69047;SDS011;56119;50.118;8.642;2023-08-07T01:54:15;5.68;;;1.27;;
69047;SDS011;56119;50.118;8.642;2023-08-07T01:56:41;6.90;;;1.50;;
69047;SDS011;56119;50.118;8.642;2023-08-07T01:59:07;5.00;;;1.13;;
69047;SDS011;56119;50.118;8.642;2023-08-07T02:01:32;4.78;;;1.40;;
69047;SDS011;56119;50.118;8.642;2023-08-07T02:03:58;4.72;;;1.17;;
69047;SDS011;56119;50.118;8.642;2023-08-07T02:06:24;2.55;;;1.50;;
69047;SDS011;56119;50.118;8.642;2023-08-07T02:08:50;3.55;;;1.20;;
69047;SDS011;56119;50.118;8.642;2023-08-07T02:11:16;5.05;;;1.70;;
69047;SDS011;56119;50.118;8.642;2023-08-07T02:13:42;5.90;;;1.40;;
69047;SDS011;56119;50.118;8.642;2023-08-07T02:16:08;6.43;;;1.63;;
69047;SDS011;56119;50.118;8.642;2023-08-07T02:18:34;5.03;;;1.20;;
69047;SDS011;56119;50.118;8.642;2023-08-07T02:21:00;5.60;;;1.42;;
69047;SDS011;56119;50.118;8.642;2023-08-07T02:23:26;5.00;;;1.55;;
69047;SDS011;56119;50.118;8.642;2023-08-07T02:25:54;4.82;;;1.65;;
69047;SDS011;56119;50.118;8.642;2023-08-07T02:28:19;4.88;;;1.42;;
69047;SDS011;56119;50.118;8.642;2023-08-07T02:30:46;6.15;;;1.90;;
69047;SDS011;56119;50.118;8.642;2023-08-07T02:33:16;6.47;;;2.05;;
69047;SDS011;56119;50.118;8.642;2023-08-07T02:35:42;5.82;;;1.42;;
69047;SDS011;56119;50.118;8.642;2023-08-07T02:38:08;2.75;;;1.52;;
69047;SDS011;56119;50.118;8.642;2023-08-07T02:40:34;4.47;;;1.67;;
69047;SDS011;56119;50.118;8.642;2023-08-07T02:43:00;4.25;;;1.95;;
69047;SDS011;56119;50.118;8.642;2023-08-07T02:45:26;4.25;;;1.50;;
69047;SDS011;56119;50.118;8.642;2023-08-07T02:47:52;5.28;;;1.40;;
69047;SDS011;56119;50.118;8.642;2023-08-07T02:50:18;3.97;;;1.58;;
69047;SDS011;56119;50.118;8.642;2023-08-07T02:52:44;4.32;;;1.55;;
69047;SDS011;56119;50.118;8.642;2023-08-07T02:55:10;6.75;;;1.80;;
69047;SDS011;56119;50.118;8.642;2023-08-07T02:57:36;5.68;;;1.92;;
69047;SDS011;56119;50.118;8.642;2023-08-07T03:00:02;4.28;;;1.80;;
69047;SDS011;56119;50.118;8.642;2023-08-07T03:02:28;5.35;;;1.70;;
69047;SDS011;56119;50.118;8.642;2023-08-07T03:04:54;6.15;;;1.58;;
69047;SDS011;56119;50.118;8.642;2023-08-07T03:07:20;6.72;;;2.08;;
69047;SDS011;56119;50.118;8.642;2023-08-07T03:09:46;4.45;;;1.85;;
69047;SDS011;56119;50.118;8.642;2023-08-07T03:12:12;6.63;;;1.83;;
69047;SDS011;56119;50.118;8.642;2023-08-07T03:14:38;6.53;;;2.20;;
69047;SDS011;56119;50.118;8.642;2023-08-07T03:17:04;6.97;;;2.15;;
69047;SDS011;56119;50.118;8.642;2023-08-07T03:19:30;5.47;;;1.77;;
69047;SDS011;56119;50.118;8.642;2023-08-07T03:21:56;6.35;;;1.90;;
69047;SDS011;56119;50.118;8.642;2023-08-07T03:24:22;4.22;;;2.25;;
69047;SDS011;56119;50.118;8.642;2023-08-07T03:26:48;4.68;;;1.55;;
69047;SDS011;56119;50.118;8.642;2023-08-07T03:29:14;4.55;;;1.92;;
69047;SDS011;56119;50.118;8.642;2023-08-07T03:31:40;5.88;;;2.17;;
69047;SDS011;56119;50.118;8.642;2023-08-07T03:34:06;3.25;;;1.88;;
69047;SDS011;56119;50.118;8.642;2023-08-07T03:36:32;8.48;;;2.28;;
69047;SDS011;56119;50.118;8.642;2023-08-07T03:38:58;7.00;;;2.72;;
69047;SDS011;56119;50.118;8.642;2023-08-07T03:41:24;4.70;;;1.90;;
69047;SDS011;56119;50.118;8.642;2023-08-07T03:43:50;7.38;;;2.15;;
69047;SDS011;56119;50.118;8.642;2023-08-07T03:46:16;5.90;;;1.75;;
69047;SDS011;56119;50.118;8.642;2023-08-07T03:48:42;7.20;;;2.10;;
69047;SDS011;56119;50.118;8.642;2023-08-07T03:51:08;5.05;;;2.17;;
69047;SDS011;56119;50.118;8.642;2023-08-07T03:53:34;5.60;;;1.85;;
69047;SDS011;56119;50.118;8.642;2023-08-07T03:56:00;5.45;;;2.10;;
69047;SDS011;56119;50.118;8.642;2023-08-07T03:58:26;6.53;;;1.83;;
69047;SDS011;56119;50.118;8.642;2023-08-07T04:00:52;8.25;;;2.10;;
69047;SDS011;56119;50.118;8.642;2023-08-07T04:03:19;5.35;;;2.33;;
69047;SDS011;56119;50.118;8.642;2023-08-07T04:05:45;4.22;;;2.13;;
69047;SDS011;56119;50.118;8.642;2023-08-07T04:08:11;4.07;;;2.33;;
69047;SDS011;56119;50.118;8.642;2023-08-07T04:10:37;5.90;;;2.28;;
69047;SDS011;56119;50.118;8.642;2023-08-07T04:13:03;5.00;;;2.05;;
69047;SDS011;56119;50.118;8.642;2023-08-07T04:15:29;6.10;;;2.03;;
69047;SDS011;56119;50.118;8.642;2023-08-07T04:17:55;3.83;;;1.95;;
69047;SDS011;56119;50.118;8.642;2023-08-07T04:20:21;6.47;;;2.88;;
69047;SDS011;56119;50.118;8.642;2023-08-07T04:22:47;3.63;;;1.80;;
69047;SDS011;56119;50.118;8.642;2023-08-07T04:25:13;7.95;;;3.38;;
69047;SDS011;56119;50.118;8.642;2023-08-07T04:27:39;4.03;;;2.40;;
69047;SDS011;56119;50.118;8.642;2023-08-07T04:30:05;4.38;;;1.92;;
69047;SDS011;56119;50.118;8.642;2023-08-07T04:32:31;8.65;;;2.60;;
69047;SDS011;56119;50.118;8.642;2023-08-07T04:34:57;6.35;;;2.53;;
69047;SDS011;56119;50.118;8.642;2023-08-07T04:37:23;5.85;;;2.03;;
69047;SDS011;56119;50.118;8.642;2023-08-07T04:39:49;6.22;;;2.10;;
69047;SDS011;56119;50.118;8.642;2023-08-07T04:42:15;5.57;;;2.20;;
69047;SDS011;56119;50.118;8.642;2023-08-07T04:44:41;4.82;;;2.33;;
69047;SDS011;56119;50.118;8.642;2023-08-07T04:47:07;7.30;;;2.38;;
69047;SDS011;56119;50.118;8.642;2023-08-07T04:49:33;6.32;;;2.25;;
69047;SDS011;56119;50.118;8.642;2023-08-07T04:51:59;5.18;;;2.20;;
69047;SDS011;56119;50.118;8.642;2023-08-07T04:54:25;6.88;;;2.28;;
69047;SDS011;56119;50.118;8.642;2023-08-07T04:56:51;4.43;;;2.38;;
69047;SDS011;56119;50.118;8.642;2023-08-07T04:59:17;4.90;;;2.10;;
69047;SDS011;56119;50.118;8.642;2023-08-07T05:01:43;8.23;;;2.10;;
69047;SDS011;56119;50.118;8.642;2023-08-07T05:04:09;8.88;;;2.47;;
69047;SDS011;56119;50.118;8.642;2023-08-07T05:06:35;4.93;;;2.20;;
69047;SDS011;56119;50.118;8.642;2023-08-07T05:09:02;5.22;;;2.13;;
69047;SDS011;56119;50.118;8.642;2023-08-07T05:11:28;4.53;;;2.88;;
69047;SDS011;56119;50.118;8.642;2023-08-07T05:13:54;9.00;;;3.30;;
69047;SDS011;56119;50.118;8.642;2023-08-07T05:16:20;6.13;;;2.08;;
69047;SDS011;56119;50.118;8.642;2023-08-07T05:18:48;7.68;;;2.10;;
69047;SDS011;56119;50.118;8.642;2023-08-07T05:21:14;4.78;;;1.50;;
69047;SDS011;56119;50.118;8.642;2023-08-07T05:23:40;7.43;;;2.38;;
69047;SDS011;56119;50.118;8.642;2023-08-07T05:26:06;6.03;;;1.63;;
69047;SDS011;56119;50.118;8.642;2023-08-07T05:28:32;6.70;;;2.28;;
69047;SDS011;56119;50.118;8.642;2023-08-07T05:30:58;4.38;;;1.65;;
69047;SDS011;56119;50.118;8.642;2023-08-07T05:33:24;6.75;;;2.10;;
69047;SDS011;56119;50.118;8.642;2023-08-07T05:35:50;5.90;;;1.90;;
69047;SDS011;56119;50.118;8.642;2023-08-07T05:38:17;5.00;;;2.22;;
69047;SDS011;56119;50.118;8.642;2023-08-07T05:40:43;5.10;;;1.80;;
69047;SDS011;56119;50.118;8.642;2023-08-07T05:43:09;6.25;;;1.83;;
69047;SDS011;56119;50.118;8.642;2023-08-07T05:45:36;4.57;;;2.05;;
69047;SDS011;56119;50.118;8.642;2023-08-07T05:48:02;5.38;;;2.03;;
69047;SDS011;56119;50.118;8.642;2023-08-07T05:50:28;4.45;;;2.00;;
69047;SDS011;56119;50.118;8.642;2023-08-07T05:52:54;7.65;;;2.22;;
69047;SDS011;56119;50.118;8.642;2023-08-07T05:55:20;4.15;;;2.10;;
69047;SDS011;56119;50.118;8.642;2023-08-07T05:57:46;5.07;;;1.98;;
69047;SDS011;56119;50.118;8.642;2023-08-07T06:00:12;5.68;;;2.25;;
69047;SDS011;56119;50.118;8.642;2023-08-07T06:02:42;4.35;;;2.13;;
69047;SDS011;56119;50.118;8.642;2023-08-07T06:05:08;5.05;;;2.08;;
69047;SDS011;56119;50.118;8.642;2023-08-07T06:07:37;7.53;;;2.78;;
69047;SDS011;56119;50.118;8.642;2023-08-07T06:10:03;6.85;;;2.50;;
69047;SDS011;56119;50.118;8.642;2023-08-07T06:12:29;7.72;;;2.80;;
69047;SDS011;56119;50.118;8.642;2023-08-07T06:14:55;9.65;;;2.90;;
69047;SDS011;56119;50.118;8.642;2023-08-07T06:17:21;7.82;;;2.40;;
69047;SDS011;56119;50.118;8.642;2023-08-07T06:19:47;6.55;;;2.50;;
69047;SDS011;56119;50.118;8.642;2023-08-07T06:22:13;6.50;;;2.80;;
69047;SDS011;56119;50.118;8.642;2023-08-07T06:24:39;5.38;;;2.53;;
69047;SDS011;56119;50.118;8.642;2023-08-07T06:27:05;7.82;;;2.80;;
69047;SDS011;56119;50.118;8.642;2023-08-07T06:29:31;6.53;;;2.40;;
69047;SDS011;56119;50.118;8.642;2023-08-07T06:31:57;6.97;;;2.97;;
69047;SDS011;56119;50.118;8.642;2023-08-07T06:34:23;4.85;;;2.00;;
69047;SDS011;56119;50.118;8.642;2023-08-07T06:36:49;4.95;;;1.95;;
69047;SDS011;56119;50.118;8.642;2023-08-07T06:39:15;6.13;;;2.40;;
69047;SDS011;56119;50.118;8.642;2023-08-07T06:41:41;6.32;;;1.70;;
69047;SDS011;56119;50.118;8.642;2023-08-07T06:44:07;5.97;;;1.92;;
69047;SDS011;56119;50.118;8.642;2023-08-07T06:46:33;3.53;;;1.60;;
69047;SDS011;56119;50.118;8.642;2023-08-07T06:48:59;5.30;;;1.80;;
69047;SDS011;56119;50.118;8.642;2023-08-07T06:51:25;4.55;;;1.67;;
69047;SDS011;56119;50.118;8.642;2023-08-07T06:53:51;3.55;;;1.95;;
69047;SDS011;56119;50.118;8.642;2023-08-07T06:56:17;3.60;;;1.23;;
69047;SDS011;56119;50.118;8.642;2023-08-07T06:58:43;6.05;;;1.70;;
69047;SDS011;56119;50.118;8.642;2023-08-07T07:01:09;3.70;;;1.80;;
69047;SDS011;56119;50.118;8.642;2023-08-07T07:03:35;5.72;;;1.45;;
69047;SDS011;56119;50.118;8.642;2023-08-07T07:06:01;3.95;;;1.67;;
69047;SDS011;56119;50.118;8.642;2023-08-07T07:08:27;5.78;;;2.00;;
69047;SDS011;56119;50.118;8.642;2023-08-07T07:10:53;5.35;;;1.77;;
69047;SDS011;56119;50.118;8.642;2023-08-07T07:13:19;3.78;;;1.70;;
69047;SDS011;56119;50.118;8.642;2023-08-07T07:15:45;4.40;;;1.20;;
69047;SDS011;56119;50.118;8.642;2023-08-07T07:18:11;2.40;;;1.65;;
69047;SDS011;56119;50.118;8.642;2023-08-07T07:20:37;9.13;;;3.17;;
69047;SDS011;56119;50.118;8.642;2023-08-07T07:23:03;4.43;;;2.10;;
69047;SDS011;56119;50.118;8.642;2023-08-07T07:25:29;8.52;;;2.72;;
69047;SDS011;56119;50.118;8.642;2023-08-07T07:27:55;4.45;;;2.33;;
69047;SDS011;56119;50.118;8.642;2023-08-07T07:30:21;6.35;;;2.33;;
69047;SDS011;56119;50.118;8.642;2023-08-07T07:32:47;7.35;;;2.28;;
69047;SDS011;56119;50.118;8.642;2023-08-07T07:35:13;5.40;;;1.85;;
69047;SDS011;56119;50.118;8.642;2023-08-07T07:37:39;7.25;;;1.90;;
69047;SDS011;56119;50.118;8.642;2023-08-07T07:40:05;6.47;;;2.15;;
69047;SDS011;56119;50.118;8.642;2023-08-07T07:42:31;6.82;;;1.98;;
69047;SDS011;56119;50.118;8.642;2023-08-07T07:44:57;8.98;;;3.22;;
69047;SDS011;56119;50.118;8.642;2023-08-07T07:47:23;10.15;;;2.75;;
69047;SDS011;56119;50.118;8.642;2023-08-07T07:49:49;6.93;;;1.92;;
69047;SDS011;56119;50.118;8.642;2023-08-07T07:52:29;6.00;;;2.20;;
69047;SDS011;56119;50.118;8.642;2023-08-07T07:54:55;6.32;;;2.22;;
69047;SDS011;56119;50.118;8.642;2023-08-07T07:57:21;5.25;;;2.50;;
69047;SDS011;56119;50.118;8.642;2023-08-07T07:59:47;10.48;;;3.17;;
69047;SDS011;56119;50.118;8.642;2023-08-07T08:02:14;4.28;;;1.92;;
69047;SDS011;56119;50.118;8.642;2023-08-07T08:04:41;5.72;;;2.05;;
69047;SDS011;56119;50.118;8.642;2023-08-07T08:07:07;6.10;;;2.22;;
69047;SDS011;56119;50.118;8.642;2023-08-07T08:09:33;5.47;;;2.15;;
69047;SDS011;56119;50.118;8.642;2023-08-07T08:11:59;4.97;;;1.88;;
69047;SDS011;56119;50.118;8.642;2023-08-07T08:14:25;6.85;;;2.50;;
69047;SDS011;56119;50.118;8.642;2023-08-07T08:16:51;5.03;;;2.25;;
69047;SDS011;56119;50.118;8.642;2023-08-07T08:19:17;9.07;;;2.33;;
69047;SDS011;56119;50.118;8.642;2023-08-07T08:21:43;3.92;;;2.25;;
69047;SDS011;56119;50.118;8.642;2023-08-07T08:24:09;5.70;;;2.33;;
69047;SDS011;56119;50.118;8.642;2023-08-07T08:26:35;6.43;;;2.05;;
69047;SDS011;56119;50.118;8.642;2023-08-07T08:29:01;4.68;;;1.80;;
69047;SDS011;56119;50.118;8.642;2023-08-07T08:31:27;5.82;;;2.00;;
69047;SDS011;56119;50.118;8.642;2023-08-07T08:33:53;3.72;;;2.03;;
69047;SDS011;56119;50.118;8.642;2023-08-07T08:36:19;6.25;;;2.03;;
69047;SDS011;56119;50.118;8.642;2023-08-07T08:38:45;7.50;;;2.38;;
69047;SDS011;56119;50.118;8.642;2023-08-07T08:41:13;5.55;;;2.08;;
69047;SDS011;56119;50.118;8.642;2023-08-07T08:43:39;6.38;;;1.98;;
69047;SDS011;56119;50.118;8.642;2023-08-07T08:46:06;5.15;;;2.47;;
69047;SDS011;56119;50.118;8.642;2023-08-07T08:48:34;7.43;;;2.05;;
69047;SDS011;56119;50.118;8.642;2023-08-07T08:51:01;5.20;;;1.58;;
69047;SDS011;56119;50.118;8.642;2023-08-07T08:53:28;3.83;;;1.85;;
69047;SDS011;56119;50.118;8.642;2023-08-07T08:55:54;4.80;;;2.25;;
69047;SDS011;56119;50.118;8.642;2023-08-07T08:58:20;3.35;;;2.08;;
69047;SDS011;56119;50.118;8.642;2023-08-07T09:00:46;7.88;;;2.80;;
69047;SDS011;56119;50.118;8.642;2023-08-07T09:03:13;5.05;;;2.47;;
69047;SDS011;56119;50.118;8.642;2023-08-07T09:05:39;7.22;;;2.47;;
69047;SDS011;56119;50.118;8.642;2023-08-07T09:08:06;7.03;;;2.60;;
69047;SDS011;56119;50.118;8.642;2023-08-07T09:10:32;5.05;;;1.88;;
69047;SDS011;56119;50.118;8.642;2023-08-07T09:13:01;4.97;;;2.08;;
69047;SDS011;56119;50.118;8.642;2023-08-07T09:15:31;4.70;;;1.95;;
69047;SDS011;56119;50.118;8.642;2023-08-07T09:17:58;6.63;;;2.20;;
69047;SDS011;56119;50.118;8.642;2023-08-07T09:20:24;4.43;;;2.17;;
69047;SDS011;56119;50.118;8.642;2023-08-07T09:22:50;7.63;;;2.65;;
69047;SDS011;56119;50.118;8.642;2023-08-07T09:25:32;5.93;;;1.75;;
69047;SDS011;56119;50.118;8.642;2023-08-07T09:27:58;3.47;;;1.50;;
69047;SDS011;56119;50.118;8.642;2023-08-07T09:30:29;3.28;;;1.35;;
69047;SDS011;56119;50.118;8.642;2023-08-07T09:32:58;6.38;;;2.17;;
69047;SDS011;56119;50.118;8.642;2023-08-07T09:35:24;2.85;;;1.20;;
69047;SDS011;56119;50.118;8.642;2023-08-07T09:37:51;3.08;;;1.77;;
69047;SDS011;56119;50.118;8.642;2023-08-07T09:40:17;2.97;;;1.42;;
69047;SDS011;56119;50.118;8.642;2023-08-07T09:42:44;4.97;;;1.83;;
69047;SDS011;56119;50.118;8.642;2023-08-07T09:47:45;3.22;;;1.40;;
69047;SDS011;56119;50.118;8.642;2023-08-07T09:50:15;6.72;;;1.77;;
69047;SDS011;56119;50.118;8.642;2023-08-07T09:52:45;3.33;;;1.30;;
69047;SDS011;56119;50.118;8.642;2023-08-07T09:55:12;3.80;;;1.48;;
69047;SDS011;56119;50.118;8.642;2023-08-07T09:57:38;3.58;;;1.30;;
69047;SDS011;56119;50.118;8.642;2023-08-07T10:00:07;2.40;;;1.55;;
69047;SDS011;56119;50.118;8.642;2023-08-07T10:02:36;2.25;;;1.50;;
69047;SDS011;56119;50.118;8.642;2023-08-07T10:05:03;2.70;;;1.48;;
69047;SDS011;56119;50.118;8.642;2023-08-07T10:07:30;6.07;;;1.50;;
69047;SDS011;56119;50.118;8.642;2023-08-07T10:09:56;2.75;;;1.13;;
69047;SDS011;56119;50.118;8.642;2023-08-07T10:12:22;4.03;;;1.27;;
69047;SDS011;56119;50.118;8.642;2023-08-07T10:14:48;3.08;;;1.15;;
69047;SDS011;56119;50.118;8.642;2023-08-07T10:17:14;2.60;;;1.25;;
69047;SDS011;56119;50.118;8.642;2023-08-07T10:19:40;4.45;;;1.10;;
69047;SDS011;56119;50.118;8.642;2023-08-07T10:22:06;3.80;;;1.30;;
69047;SDS011;56119;50.118;8.642;2023-08-07T10:24:33;4.32;;;1.60;;
69047;SDS011;56119;50.118;8.642;2023-08-07T10:27:00;5.07;;;1.35;;
69047;SDS011;56119;50.118;8.642;2023-08-07T10:29:26;2.05;;;1.10;;
69047;SDS011;56119;50.118;8.642;2023-08-07T10:31:53;3.13;;;1.27;;
69047;SDS011;56119;50.118;8.642;2023-08-07T10:34:20;4.22;;;1.00;;
69047;SDS011;56119;50.118;8.642;2023-08-07T10:36:47;3.83;;;1.00;;
69047;SDS011;56119;50.118;8.642;2023-08-07T10:39:14;3.40;;;1.30;;
69047;SDS011;56119;50.118;8.642;2023-08-07T10:41:42;5.15;;;1.27;;
69047;SDS011;56119;50.118;8.642;2023-08-07T10:44:29;4.15;;;1.50;;
69047;SDS011;56119;50.118;8.642;2023-08-07T10:46:58;4.10;;;1.40;;
69047;SDS011;56119;50.118;8.642;2023-08-07T10:49:40;3.00;;;1.10;;
69047;SDS011;56119;50.118;8.642;2023-08-07T10:52:09;3.40;;;1.60;;
69047;SDS011;56119;50.118;8.642;2023-08-07T10:54:37;4.05;;;1.40;;
69047;SDS011;56119;50.118;8.642;2023-08-07T10:57:14;4.53;;;1.20;;
69047;SDS011;56119;50.118;8.642;2023-08-07T10:59:44;2.55;;;1.65;;
69047;SDS011;56119;50.118;8.642;2023-08-07T11:02:11;3.30;;;1.63;;
69047;SDS011;56119;50.118;8.642;2023-08-07T11:04:38;6.95;;;1.48;;
69047;SDS011;56119;50.118;8.642;2023-08-07T11:07:04;6.97;;;2.25;;
69047;SDS011;56119;50.118;8.642;2023-08-07T11:09:30;2.05;;;1.17;;
69047;SDS011;56119;50.118;8.642;2023-08-07T11:11:59;3.47;;;1.50;;
69047;SDS011;56119;50.118;8.642;2023-08-07T11:14:25;4.35;;;1.67;;
69047;SDS011;56119;50.118;8.642;2023-08-07T11:16:51;5.38;;;1.65;;
69047;SDS011;56119;50.118;8.642;2023-08-07T11:19:18;3.70;;;1.63;;
69047;SDS011;56119;50.118;8.642;2023-08-07T11:21:44;5.50;;;1.98;;
69047;SDS011;56119;50.118;8.642;2023-08-07T11:24:13;6.97;;;1.85;;
69047;SDS011;56119;50.118;8.642;2023-08-07T11:26:43;4.32;;;1.60;;
69047;SDS011;56119;50.118;8.642;2023-08-07T11:29:10;4.63;;;1.83;;
69047;SDS011;56119;50.118;8.642;2023-08-07T11:31:36;5.35;;;2.80;;
69047;SDS011;56119;50.118;8.642;2023-08-07T11:34:02;3.75;;;1.38;;
69047;SDS011;56119;50.118;8.642;2023-08-07T11:36:28;2.97;;;1.80;;
69047;SDS011;56119;50.118;8.642;2023-08-07T11:38:54;6.38;;;2.08;;
69047;SDS011;56119;50.118;8.642;2023-08-07T11:41:20;3.05;;;1.50;;
69047;SDS011;56119;50.118;8.642;2023-08-07T11:43:47;4.03;;;1.77;;
69047;SDS011;56119;50.118;8.642;2023-08-07T11:46:14;3.35;;;1.80;;
69047;SDS011;56119;50.118;8.642;2023-08-07T11:48:40;7.22;;;1.88;;
69047;SDS011;56119;50.118;8.642;2023-08-07T11:51:06;6.50;;;1.83;;
69047;SDS011;56119;50.118;8.642;2023-08-07T11:53:36;7.30;;;2.22;;
69047;SDS011;56119;50.118;8.642;2023-08-07T11:56:04;5.53;;;1.63;;
69047;SDS011;56119;50.118;8.642;2023-08-07T11:58:34;3.08;;;1.30;;
69047;SDS011;56119;50.118;8.642;2023-08-07T12:01:04;6.05;;;2.00;;
69047;SDS011;56119;50.118;8.642;2023-08-07T12:03:31;3.92;;;1.73;;
69047;SDS011;56119;50.118;8.642;2023-08-07T12:05:59;3.72;;;2.00;;
69047;SDS011;56119;50.118;8.642;2023-08-07T12:08:31;5.28;;;1.90;;
69047;SDS011;56119;50.118;8.642;2023-08-07T12:10:57;7.72;;;2.22;;
69047;SDS011;56119;50.118;8.642;2023-08-07T12:13:24;4.22;;;1.70;;
69047;SDS011;56119;50.118;8.642;2023-08-07T12:15:53;3.63;;;1.67;;
69047;SDS011;56119;50.118;8.642;2023-08-07T12:18:19;6.22;;;1.80;;
69047;SDS011;56119;50.118;8.642;2023-08-07T12:20:46;6.13;;;1.55;;
69047;SDS011;56119;50.118;8.642;2023-08-07T12:23:15;2.92;;;1.73;;
69047;SDS011;56119;50.118;8.642;2023-08-07T12:25:41;3.10;;;1.70;;
69047;SDS011;56119;50.118;8.642;2023-08-07T12:28:08;5.90;;;2.20;;
69047;SDS011;56119;50.118;8.642;2023-08-07T12:30:34;5.15;;;1.80;;
69047;SDS011;56119;50.118;8.642;2023-08-07T12:33:00;6.85;;;1.70;;
69047;SDS011;56119;50.118;8.642;2023-08-07T12:35:28;4.13;;;1.38;;
69047;SDS011;56119;50.118;8.642;2023-08-07T12:37:53;7.25;;;1.77;;
69047;SDS011;56119;50.118;8.642;2023-08-07T12:40:19;5.40;;;1.52;;
69047;SDS011;56119;50.118;8.642;2023-08-07T12:42:46;5.10;;;1.73;;
69047;SDS011;56119;50.118;8.642;2023-08-07T12:45:13;4.75;;;1.52;;
69047;SDS011;56119;50.118;8.642;2023-08-07T12:47:40;4.05;;;1.73;;
69047;SDS011;56119;50.118;8.642;2023-08-07T12:50:07;3.88;;;1.67;;
69047;SDS011;56119;50.118;8.642;2023-08-07T12:52:33;5.03;;;1.75;;
69047;SDS011;56119;50.118;8.642;2023-08-07T12:54:59;5.53;;;1.85;;
69047;SDS011;56119;50.118;8.642;2023-08-07T12:57:25;6.20;;;1.80;;
69047;SDS011;56119;50.118;8.642;2023-08-07T12:59:51;5.85;;;1.67;;
69047;SDS011;56119;50.118;8.642;2023-08-07T13:02:17;3.78;;;1.73;;
69047;SDS011;56119;50.118;8.642;2023-08-07T13:04:43;5.30;;;2.00;;
69047;SDS011;56119;50.118;8.642;2023-08-07T13:07:09;5.55;;;1.73;;
69047;SDS011;56119;50.118;8.642;2023-08-07T13:09:35;7.63;;;1.73;;
69047;SDS011;56119;50.118;8.642;2023-08-07T13:12:01;8.15;;;1.95;;
69047;SDS011;56119;50.118;8.642;2023-08-07T13:14:27;6.45;;;1.80;;
69047;SDS011;56119;50.118;8.642;2023-08-07T13:16:53;3.13;;;1.60;;
69047;SDS011;56119;50.118;8.642;2023-08-07T13:19:19;5.00;;;1.67;;
69047;SDS011;56119;50.118;8.642;2023-08-07T13:21:45;7.07;;;1.92;;
69047;SDS011;56119;50.118;8.642;2023-08-07T13:24:11;4.68;;;1.48;;
69047;SDS011;56119;50.118;8.642;2023-08-07T13:26:37;5.05;;;2.05;;
69047;SDS011;56119;50.118;8.642;2023-08-07T13:29:09;5.05;;;1.67;;
69047;SDS011;56119;50.118;8.642;2023-08-07T13:31:35;4.40;;;1.88;;
69047;SDS011;56119;50.118;8.642;2023-08-07T13:34:01;4.60;;;1.80;;
69047;SDS011;56119;50.118;8.642;2023-08-07T13:36:32;2.65;;;1.38;;
69047;SDS011;56119;50.118;8.642;2023-08-07T13:38:58;4.47;;;1.65;;
69047;SDS011;56119;50.118;8.642;2023-08-07T13:41:25;6.05;;;1.92;;
69047;SDS011;56119;50.118;8.642;2023-08-07T13:43:51;5.65;;;1.70;;
69047;SDS011;56119;50.118;8.642;2023-08-07T13:46:17;3.58;;;1.30;;
69047;SDS011;56119;50.118;8.642;2023-08-07T13:48:47;4.15;;;1.90;;
69047;SDS011;56119;50.118;8.642;2023-08-07T13:51:13;6.10;;;2.28;;
69047;SDS011;56119;50.118;8.642;2023-08-07T13:53:39;6.28;;;2.10;;
69047;SDS011;56119;50.118;8.642;2023-08-07T13:56:05;10.45;;;2.42;;
69047;SDS011;56119;50.118;8.642;2023-08-07T13:58:33;2.92;;;1.85;;
69047;SDS011;56119;50.118;8.642;2023-08-07T14:00:59;4.43;;;1.70;;
69047;SDS011;56119;50.118;8.642;2023-08-07T14:03:25;3.15;;;1.52;;
69047;SDS011;56119;50.118;8.642;2023-08-07T14:05:51;4.47;;;1.40;;
69047;SDS011;56119;50.118;8.642;2023-08-07T14:08:17;4.53;;;1.98;;
69047;SDS011;56119;50.118;8.642;2023-08-07T14:10:43;4.43;;;1.58;;
69047;SDS011;56119;50.118;8.642;2023-08-07T14:13:09;3.90;;;1.75;;
69047;SDS011;56119;50.118;8.642;2023-08-07T14:15:36;4.60;;;1.60;;
69047;SDS011;56119;50.118;8.642;2023-08-07T14:18:02;3.63;;;1.58;;
69047;SDS011;56119;50.118;8.642;2023-08-07T14:20:28;4.10;;;1.70;;
69047;SDS011;56119;50.118;8.642;2023-08-07T14:22:54;5.13;;;1.58;;
69047;SDS011;56119;50.118;8.642;2023-08-07T14:25:20;4.95;;;1.67;;
69047;SDS011;56119;50.118;8.642;2023-08-07T14:27:47;3.35;;;1.50;;
69047;SDS011;56119;50.118;8.642;2023-08-07T14:30:13;3.55;;;1.55;;
69047;SDS011;56119;50.118;8.642;2023-08-07T14:32:39;3.70;;;1.92;;
69047;SDS011;56119;50.118;8.642;2023-08-07T14:35:05;4.68;;;1.90;;
69047;SDS011;56119;50.118;8.642;2023-08-07T14:37:31;5.75;;;1.92;;
69047;SDS011;56119;50.118;8.642;2023-08-07T14:39:57;5.88;;;2.47;;
69047;SDS011;56119;50.118;8.642;2023-08-07T14:42:24;5.35;;;1.60;;
69047;SDS011;56119;50.118;8.642;2023-08-07T14:44:50;3.20;;;1.65;;
69047;SDS011;56119;50.118;8.642;2023-08-07T14:47:16;6.40;;;1.90;;